Flight Number: EUR1197 Duration: 3:30
Departure: Athens Int'l (LGAV) at 06:30 Distance: 1300 Nm
Arrival: Gatwick Airport (EGKK) at 10:00 Equipment: A330-200

Weather Information
Athens Eleftherios Venizelos International Airport, Greece (LGAV) 37-56N 023-56E Nov 19, 2018 - 04:50 PM EST / 2018.11.19 2150 UTC
Wind: Calm:0
Visibility: greater than 7 mile(s):0
Sky conditions: partly cloudy Temperature: 55 F (13 C) Dew Point: 53 F (12 C) Relative Humidity: 93% Pressure (altimeter): 30.06 in. Hg (1018 hPa)
ob: LGAV 192150Z 00000KT 9999 SCT010 SCT030 13/12 Q1018 NOSIG cycle: 22
Sunrise: 05:12 Sunset: 15:06 (UTC)

London / Gatwick Airport, United Kingdom (EGKK) 51-09N 000-11W 0M Nov 19, 2018 - 04:50 PM EST / 2018.11.19 2150 UTC
Wind: from the NNE (030 degrees) at 10 MPH (9 KT) (direction variable):0
Visibility: greater than 7 mile(s):0
Sky conditions: mostly clear Temperature: 39 F (4 C) Dew Point: 37 F (3 C) Relative Humidity: 93% Pressure (altimeter): 29.94 in. Hg (1014 hPa)
ob: EGKK 192150Z 03009KT 360V070 9999 FEW037 04/03 Q1014 cycle: 22
Sunrise: 07:29 Sunset: 16:03 (UTC)

TAF:2018/11/19 18:09 TAF EGKK 191659Z 1918/2024 05013KT 9999 BKN020 TEMPO 1918/2021 6000 SHRA BKN014 PROB30 TEMPO 1920/2016 04016G26KT 4000 +SHRA BKN008 BECMG 2021/2024 07003KT TEMPO 2021/2024 5000 BR BKN007

Previous Pireps for this route
Date Aircraft Flight time Fuel used Landing rate On time
2012-09-17MD-8103.3426749-221No
2012-10-04MD-8103.4425157-261No
2013-10-17A330-2003.50521860No
2013-10-18MD-813.00280000No
2014-08-14MD-8103.2721510-221No
(pireps marked green are flown by you)

Route map